Time;durP1;ratioP1;P1;durP2;ratioP2;P2;SDS_P1;SDS_P2;PMS_P1;PMS_P2;Temp;Humidity;BMP_temperature;BMP_pressure;BME280_temperature;BME280_humidity;BME280_pressure;Samples;Min_cycle;Max_cycle;Signal;HPM_P1;HPM_P2
2022/08/16 05:00:38;;;;;;;5.20;4.80;;;20.80;97.20;;;;;;1727056;28;20182;-74
2022/08/16 05:01:29;;;;;;;4.47;4.15;;;20.80;97.20;;;;;;1726908;28;20209;-74
2022/08/16 05:02:21;;;;;;;4.72;4.32;;;20.80;97.20;;;;;;1727048;28;20196;-74
2022/08/16 05:03:12;;;;;;;6.38;5.00;;;20.80;97.20;;;;;;1726986;28;20212;-74
2022/08/16 05:04:04;;;;;;;4.88;4.47;;;20.80;97.20;;;;;;1727059;28;20200;-73
2022/08/16 05:04:55;;;;;;;4.72;4.35;;;20.80;97.20;;;;;;1727179;28;20672;-74
2022/08/16 05:05:48;;;;;;;5.07;4.57;;;20.80;97.20;;;;;;1727202;28;20731;-74
2022/08/16 05:06:40;;;;;;;4.85;4.53;;;20.90;97.20;;;;;;1727199;28;20209;-74
2022/08/16 05:07:31;;;;;;;5.55;5.05;;;20.90;97.20;;;;;;1726843;28;20223;-73
2022/08/16 05:08:23;;;;;;;5.70;4.10;;;20.90;97.20;;;;;;1727189;28;20223;-73
2022/08/16 05:09:15;;;;;;;4.63;4.22;;;20.90;97.20;;;;;;1727273;28;20566;-73
2022/08/16 05:10:08;;;;;;;5.75;4.60;;;20.90;97.20;;;;;;1727273;28;20212;-73
2022/08/16 05:11:02;;;;;;;5.75;5.25;;;20.90;97.20;;;;;;1727266;28;20263;-73
2022/08/16 05:11:54;;;;;;;5.07;4.68;;;20.90;97.20;;;;;;1726965;28;20207;-73
2022/08/16 05:12:46;;;;;;;5.07;4.57;;;20.90;97.20;;;;;;1727233;28;20196;-73
2022/08/16 05:13:39;;;;;;;5.32;4.68;;;20.90;97.20;;;;;;1727031;28;20710;-73
2022/08/16 05:14:31;;;;;;;5.75;4.80;;;20.90;97.20;;;;;;1727255;28;20839;-74
2022/08/16 05:15:22;;;;;;;4.63;4.22;;;20.90;97.20;;;;;;1727221;28;20204;-76
2022/08/16 05:16:21;;;;;;;4.75;4.35;;;20.90;97.20;;;;;;1727183;28;20204;-73
2022/08/16 05:17:12;;;;;;;5.10;4.70;;;20.90;97.20;;;;;;1726914;28;20660;-73
2022/08/16 05:18:04;;;;;;;5.27;4.00;;;20.90;97.20;;;;;;1726791;28;20711;-73
2022/08/16 05:18:57;;;;;;;4.82;4.43;;;20.90;97.20;;;;;;1727098;28;20224;-72
2022/08/16 05:19:49;;;;;;;5.00;4.60;;;20.90;97.20;;;;;;1727237;28;20657;-73
2022/08/16 05:20:40;;;;;;;4.90;4.50;;;20.90;97.20;;;;;;1720230;28;20221;-73
2022/08/16 05:21:34;;;;;;;5.03;4.63;;;20.90;97.20;;;;;;1720692;28;20816;-73
2022/08/16 05:22:25;;;;;;;4.82;4.40;;;20.90;97.20;;;;;;1726940;28;20465;-73
2022/08/16 05:23:17;;;;;;;5.70;4.75;;;20.90;97.20;;;;;;1727040;28;20303;-73
2022/08/16 05:24:08;;;;;;;6.10;5.07;;;20.90;97.20;;;;;;1725085;28;20558;-73
2022/08/16 05:25:00;;;;;;;4.90;4.50;;;20.90;97.20;;;;;;1720465;28;20565;-73
2022/08/16 05:25:50;;;;;;;5.93;4.93;;;20.90;97.20;;;;;;1720397;28;20225;-73
2022/08/16 05:26:42;;;;;;;5.50;4.97;;;20.90;97.20;;;;;;1720449;28;20294;-73
2022/08/16 05:27:33;;;;;;;4.72;4.32;;;20.90;97.20;;;;;;1720759;28;20684;-73
2022/08/16 05:28:25;;;;;;;6.17;5.40;;;20.90;97.20;;;;;;1727268;28;20636;-73
2022/08/16 05:29:16;;;;;;;7.15;4.82;;;20.90;97.20;;;;;;1727164;28;20871;-72
2022/08/16 05:30:12;;;;;;;5.17;4.77;;;20.90;97.20;;;;;;1727246;28;20212;-73
2022/08/16 05:31:02;;;;;;;4.82;4.32;;;20.90;97.20;;;;;;1727248;28;20228;-73
2022/08/16 05:31:55;;;;;;;5.30;4.80;;;20.90;97.20;;;;;;1726953;28;20192;-73
2022/08/16 05:32:46;;;;;;;5.80;5.00;;;20.90;97.20;;;;;;1727086;28;20196;-73
2022/08/16 05:33:38;;;;;;;5.63;5.13;;;20.90;97.20;;;;;;1727053;28;20253;-73
2022/08/16 05:34:29;;;;;;;4.85;4.45;;;20.90;97.20;;;;;;1727183;28;20303;-73
2022/08/16 05:35:21;;;;;;;5.10;4.70;;;20.90;97.20;;;;;;1726721;28;20201;-73
2022/08/16 05:36:12;;;;;;;7.15;5.45;;;20.90;97.20;;;;;;1727123;28;20447;-73
2022/08/16 05:37:04;;;;;;;5.20;4.73;;;21.00;97.20;;;;;;1727248;28;20279;-72
2022/08/16 05:37:55;;;;;;;5.70;4.85;;;21.00;97.20;;;;;;1727164;28;20208;-73
2022/08/16 05:38:46;;;;;;;5.57;5.07;;;21.00;97.20;;;;;;1727151;28;20291;-73
2022/08/16 05:39:37;;;;;;;5.20;4.80;;;21.00;97.20;;;;;;1727119;28;20204;-73
2022/08/16 05:40:29;;;;;;;5.00;4.53;;;21.00;97.20;;;;;;1727148;28;20315;-73
2022/08/16 05:41:20;;;;;;;5.57;5.18;;;21.00;97.20;;;;;;1726545;28;20204;-74
2022/08/16 05:42:12;;;;;;;4.90;4.50;;;21.00;97.20;;;;;;1727366;28;20193;-73
2022/08/16 05:43:03;;;;;;;5.75;5.25;;;21.00;97.20;;;;;;1728114;28;20942;-73
2022/08/16 05:43:55;;;;;;;5.05;4.55;;;21.00;97.20;;;;;;1728252;28;20280;-73
2022/08/16 05:44:46;;;;;;;5.53;5.13;;;21.00;97.20;;;;;;1728453;28;20201;-73
2022/08/16 05:45:37;;;;;;;5.57;5.13;;;21.10;97.20;;;;;;1728387;28;20197;-73
2022/08/16 05:46:28;;;;;;;6.05;5.25;;;21.10;97.20;;;;;;1728336;28;20211;-73
2022/08/16 05:47:21;;;;;;;5.90;5.47;;;21.10;97.20;;;;;;1723861;28;20232;-73
2022/08/16 05:48:12;;;;;;;5.90;5.40;;;21.10;97.20;;;;;;1725358;28;20201;-73
2022/08/16 05:49:04;;;;;;;5.20;4.80;;;21.10;97.20;;;;;;1727802;28;20352;-73
2022/08/16 05:49:55;;;;;;;5.45;4.95;;;21.10;97.20;;;;;;1727846;28;20450;-73
2022/08/16 05:50:47;;;;;;;6.20;5.60;;;21.10;97.20;;;;;;1727873;28;20195;-73
2022/08/16 05:51:38;;;;;;;6.40;5.45;;;21.20;97.20;;;;;;1727341;28;20211;-73
2022/08/16 05:52:29;;;;;;;5.73;5.23;;;21.20;97.20;;;;;;1727766;28;20189;-73
2022/08/16 05:53:20;;;;;;;6.43;5.07;;;21.20;97.20;;;;;;1727919;28;20443;-73
2022/08/16 05:54:16;;;;;;;9.60;6.00;;;21.30;97.20;;;;;;1728100;28;20283;-73
2022/08/16 05:55:08;;;;;;;5.18;4.78;;;21.30;97.20;;;;;;1728079;28;20447;-73
2022/08/16 05:55:59;;;;;;;5.50;5.00;;;21.30;97.20;;;;;;1728070;28;20713;-73
2022/08/16 05:56:50;;;;;;;5.50;5.00;;;21.30;97.20;;;;;;1728055;28;20219;-73
2022/08/16 05:57:42;;;;;;;5.93;4.97;;;21.30;97.20;;;;;;1727957;28;20287;-73
2022/08/16 05:58:32;;;;;;;6.07;5.57;;;21.30;97.20;;;;;;1727904;28;20229;-73
2022/08/16 05:59:24;;;;;;;5.47;4.97;;;21.20;97.20;;;;;;1727235;28;20285;-73
2022/08/16 06:00:15;;;;;;;5.57;5.07;;;21.20;97.20;;;;;;1727903;28;20204;-73
2022/08/16 06:01:07;;;;;;;5.60;5.10;;;21.20;97.20;;;;;;1727861;28;20193;-73
2022/08/16 06:01:58;;;;;;;5.63;5.07;;;21.20;97.20;;;;;;1727471;28;20197;-73
2022/08/16 06:02:51;;;;;;;5.10;4.70;;;21.20;97.20;;;;;;1728016;28;20197;-73
2022/08/16 06:03:42;;;;;;;5.03;4.45;;;21.20;97.20;;;;;;1727872;28;20227;-72
2022/08/16 06:04:34;;;;;;;5.60;5.13;;;21.20;97.20;;;;;;1728002;28;20283;-73
2022/08/16 06:05:25;;;;;;;5.53;4.97;;;21.20;97.20;;;;;;1728089;28;20213;-73
2022/08/16 06:06:17;;;;;;;5.00;4.60;;;21.20;97.20;;;;;;1728003;28;20303;-73
2022/08/16 06:07:08;;;;;;;5.22;4.82;;;21.30;97.20;;;;;;1727952;28;20454;-72
2022/08/16 06:08:00;;;;;;;5.53;5.13;;;21.20;97.20;;;;;;1728009;28;20287;-73
2022/08/16 06:08:51;;;;;;;6.32;5.05;;;21.20;97.20;;;;;;1727908;28;20439;-73
2022/08/16 06:09:43;;;;;;;5.83;4.90;;;21.20;97.20;;;;;;1728085;28;20201;-73
2022/08/16 06:10:33;;;;;;;5.55;5.05;;;21.20;97.20;;;;;;1727962;28;20208;-73
2022/08/16 06:11:25;;;;;;;7.10;4.90;;;21.20;97.20;;;;;;1727404;28;20280;-73
2022/08/16 06:12:17;;;;;;;4.95;4.55;;;21.20;97.20;;;;;;1727849;28;20216;-73
2022/08/16 06:13:08;;;;;;;5.72;4.97;;;21.20;97.20;;;;;;1727904;28;20204;-73
2022/08/16 06:13:59;;;;;;;5.45;4.95;;;21.20;97.20;;;;;;1727779;28;20604;-73
2022/08/16 06:14:52;;;;;;;5.67;5.17;;;21.20;97.20;;;;;;1727934;28;20318;-72
2022/08/16 06:15:44;;;;;;;4.75;4.35;;;21.20;97.20;;;;;;1727960;28;20447;-73
2022/08/16 06:16:35;;;;;;;5.38;4.80;;;21.20;97.20;;;;;;1727993;28;20207;-73
2022/08/16 06:17:27;;;;;;;5.15;4.65;;;21.20;97.20;;;;;;1727810;28;20204;-72
2022/08/16 06:18:20;;;;;;;5.32;4.82;;;21.30;97.20;;;;;;1727827;28;20200;-73
2022/08/16 06:19:11;;;;;;;5.70;5.07;;;21.30;97.20;;;;;;1727830;28;20205;-73
2022/08/16 06:20:05;;;;;;;4.90;4.43;;;21.30;97.20;;;;;;1728026;28;20196;-72
2022/08/16 06:20:56;;;;;;;5.00;4.50;;;21.30;97.20;;;;;;1727682;28;20231;-73
2022/08/16 06:21:48;;;;;;;5.03;4.63;;;21.40;97.20;;;;;;1727383;28;20199;-73
2022/08/16 06:22:39;;;;;;;5.65;5.15;;;21.40;97.20;;;;;;1727767;28;20204;-73
2022/08/16 06:23:30;;;;;;;5.20;4.80;;;21.40;97.20;;;;;;1727715;28;20295;-73
2022/08/16 06:24:21;;;;;;;5.22;4.70;;;21.40;97.20;;;;;;1727805;28;20208;-72
2022/08/16 06:25:14;;;;;;;4.80;4.40;;;21.50;97.20;;;;;;1727887;28;20291;-72
2022/08/16 06:26:06;;;;;;;4.97;4.57;;;21.50;97.20;;;;;;1728000;28;20779;-73
2022/08/16 06:26:57;;;;;;;5.15;4.55;;;21.50;97.20;;;;;;1727772;28;20193;-72
2022/08/16 06:27:48;;;;;;;5.38;4.88;;;21.50;97.20;;;;;;1727887;28;20287;-73
2022/08/16 06:28:40;;;;;;;5.70;5.27;;;21.50;97.20;;;;;;1727880;28;20196;-73
2022/08/16 06:29:31;;;;;;;5.25;4.75;;;21.60;97.20;;;;;;1727888;28;20266;-72
2022/08/16 06:30:23;;;;;;;5.13;4.68;;;21.60;97.20;;;;;;1727566;28;20669;-72
2022/08/16 06:31:15;;;;;;;7.78;5.10;;;21.60;97.20;;;;;;1727820;28;20678;-73
2022/08/16 06:32:06;;;;;;;5.50;4.68;;;21.60;97.20;;;;;;1727962;28;20211;-73
2022/08/16 06:32:59;;;;;;;5.33;4.83;;;21.60;97.20;;;;;;1727665;28;20197;-73
2022/08/16 06:33:52;;;;;;;5.03;4.63;;;21.60;97.20;;;;;;1727704;28;20998;-73
2022/08/16 06:34:43;;;;;;;5.72;5.00;;;21.60;97.20;;;;;;1727911;28;20660;-73
2022/08/16 06:35:35;;;;;;;7.28;5.03;;;21.70;97.20;;;;;;1727678;28;20601;-73
2022/08/16 06:36:28;;;;;;;6.45;5.13;;;21.70;97.20;;;;;;1727764;28;20299;-73
2022/08/16 06:37:18;;;;;;;5.10;4.70;;;21.70;97.20;;;;;;1727650;28;20679;-73
2022/08/16 06:38:10;;;;;;;5.70;5.30;;;21.70;97.20;;;;;;1727851;28;20679;-73
2022/08/16 06:39:01;;;;;;;5.65;5.25;;;21.70;97.20;;;;;;1727786;28;20207;-73
2022/08/16 06:39:53;;;;;;;6.23;4.60;;;21.70;97.20;;;;;;1727783;28;20239;-73
2022/08/16 06:40:44;;;;;;;5.95;5.45;;;21.70;97.20;;;;;;1727441;28;20197;-72
2022/08/16 06:41:36;;;;;;;5.30;4.75;;;21.80;97.20;;;;;;1727422;28;20208;-73
2022/08/16 06:42:26;;;;;;;5.20;4.70;;;21.80;97.20;;;;;;1727606;28;20205;-72
2022/08/16 06:43:20;;;;;;;6.17;5.20;;;21.80;97.20;;;;;;1726998;28;20204;-73
2022/08/16 06:44:10;;;;;;;5.18;4.72;;;21.80;97.20;;;;;;1727193;28;20247;-73
2022/08/16 06:45:02;;;;;;;5.87;5.40;;;21.80;97.20;;;;;;1727170;28;20192;-73
2022/08/16 06:45:53;;;;;;;5.68;5.25;;;21.90;97.20;;;;;;1727217;28;20212;-72
2022/08/16 06:46:45;;;;;;;4.80;4.40;;;21.90;97.20;;;;;;1727153;28;20235;-72
2022/08/16 06:47:36;;;;;;;5.50;5.00;;;21.90;97.20;;;;;;1727747;28;20443;-73
2022/08/16 06:48:28;;;;;;;5.30;4.90;;;21.90;97.20;;;;;;1727745;28;20214;-73
2022/08/16 06:49:20;;;;;;;6.22;5.15;;;21.90;97.20;;;;;;1727486;28;20204;-73
2022/08/16 06:50:12;;;;;;;6.00;4.75;;;21.90;97.20;;;;;;1727671;28;20203;-73
2022/08/16 06:51:05;;;;;;;4.90;4.20;;;21.90;97.20;;;;;;1727166;28;20543;-73
2022/08/16 06:51:56;;;;;;;6.00;5.50;;;21.90;97.20;;;;;;1726397;28;20208;-73
2022/08/16 06:52:47;;;;;;;5.83;5.33;;;22.00;97.20;;;;;;1727753;28;20224;-73
2022/08/16 06:53:38;;;;;;;5.93;4.93;;;22.00;97.20;;;;;;1727261;28;20225;-73
2022/08/16 06:54:31;;;;;;;5.43;4.93;;;22.00;97.20;;;;;;1727597;28;20678;-73
2022/08/16 06:55:21;;;;;;;4.85;4.35;;;22.00;97.20;;;;;;1727722;28;20212;-73
2022/08/16 06:56:13;;;;;;;5.87;5.37;;;22.00;97.20;;;;;;1727867;28;20291;-73
2022/08/16 06:57:05;;;;;;;5.55;5.15;;;22.00;97.20;;;;;;1728017;28;20215;-73
2022/08/16 06:57:57;;;;;;;6.97;4.97;;;22.00;97.20;;;;;;1727843;28;20573;-73
2022/08/16 06:58:48;;;;;;;6.13;5.63;;;22.00;97.20;;;;;;1727565;28;20204;-73
2022/08/16 06:59:40;;;;;;;5.20;4.70;;;22.00;97.20;;;;;;1727721;28;20196;-73
2022/08/16 07:00:32;;;;;;;5.88;5.30;;;22.00;97.20;;;;;;1727816;28;20212;-73
2022/08/16 07:01:24;;;;;;;6.90;5.30;;;22.00;97.20;;;;;;1727378;28;20224;-73
2022/08/16 07:02:16;;;;;;;5.20;4.80;;;22.00;97.20;;;;;;1727756;28;20456;-73
2022/08/16 07:03:07;;;;;;;5.75;5.25;;;22.00;97.20;;;;;;1727688;28;20734;-73
2022/08/16 07:03:58;;;;;;;5.95;5.45;;;22.00;97.20;;;;;;1727503;28;20221;-73
2022/08/16 07:04:51;;;;;;;5.27;4.77;;;22.00;97.20;;;;;;1727707;28;20327;-73
2022/08/16 07:05:42;;;;;;;6.88;6.32;;;22.00;97.20;;;;;;1727662;28;20481;-73
2022/08/16 07:06:34;;;;;;;5.50;5.00;;;22.00;97.20;;;;;;1727650;28;20209;-73
2022/08/16 07:07:25;;;;;;;5.00;4.60;;;22.00;97.20;;;;;;1727700;28;20204;-74
2022/08/16 07:08:17;;;;;;;5.10;4.67;;;22.00;97.20;;;;;;1727671;28;20722;-73
2022/08/16 07:09:09;;;;;;;5.30;4.70;;;22.10;97.20;;;;;;1727492;28;20577;-73
2022/08/16 07:10:02;;;;;;;6.07;5.45;;;22.10;97.20;;;;;;1727593;28;20568;-73
2022/08/16 07:10:53;;;;;;;5.60;5.03;;;22.10;97.20;;;;;;1727671;28;20567;-73
2022/08/16 07:11:45;;;;;;;6.10;5.60;;;22.10;97.20;;;;;;1727456;28;20303;-72
2022/08/16 07:12:36;;;;;;;5.30;4.90;;;22.10;97.20;;;;;;1727515;28;20949;-73
2022/08/16 07:13:28;;;;;;;5.25;4.72;;;22.20;97.20;;;;;;1727505;28;20211;-73
2022/08/16 07:14:19;;;;;;;7.00;5.00;;;22.20;97.20;;;;;;1727645;28;20208;-72
2022/08/16 07:15:11;;;;;;;5.90;5.40;;;22.20;97.20;;;;;;1727649;28;20287;-73
2022/08/16 07:16:03;;;;;;;7.22;6.53;;;22.30;97.20;;;;;;1727745;28;20203;-73
2022/08/16 07:16:57;;;;;;;5.85;5.45;;;22.30;97.20;;;;;;1727571;28;20327;-72
2022/08/16 07:17:48;;;;;;;5.40;4.47;;;22.30;97.20;;;;;;1727651;28;20201;-72
2022/08/16 07:18:41;;;;;;;5.45;4.95;;;22.30;97.20;;;;;;1727275;28;20204;-72
2022/08/16 07:19:32;;;;;;;6.80;5.00;;;22.30;97.20;;;;;;1727569;28;20236;-72
2022/08/16 07:20:26;;;;;;;6.00;5.43;;;22.30;97.20;;;;;;1727614;28;20198;-73
2022/08/16 07:21:17;;;;;;;5.40;4.97;;;22.30;97.20;;;;;;1727295;28;20236;-73
2022/08/16 07:22:09;;;;;;;5.65;5.00;;;22.40;97.20;;;;;;1727689;28;20203;-72
2022/08/16 07:23:00;;;;;;;5.47;4.97;;;22.40;97.20;;;;;;1727237;28;20192;-73
2022/08/16 07:23:52;;;;;;;6.33;5.10;;;22.40;97.20;;;;;;1727577;28;20300;-73
2022/08/16 07:24:43;;;;;;;5.40;4.78;;;22.40;97.20;;;;;;1727596;28;20556;-73
2022/08/16 07:25:36;;;;;;;5.80;5.30;;;22.50;97.20;;;;;;1727597;28;20580;-73
2022/08/16 07:26:26;;;;;;;5.30;4.90;;;22.50;97.20;;;;;;1727579;28;20495;-73
2022/08/16 07:27:18;;;;;;;5.33;4.90;;;22.50;97.20;;;;;;1727566;28;20279;-73
2022/08/16 07:28:12;;;;;;;6.18;5.68;;;22.60;97.20;;;;;;1727641;28;20258;-73
2022/08/16 07:29:04;;;;;;;6.30;5.53;;;22.60;97.20;;;;;;1727288;28;20195;-73
2022/08/16 07:29:55;;;;;;;5.82;5.05;;;22.60;97.20;;;;;;1727573;28;20225;-73
2022/08/16 07:30:47;;;;;;;6.30;5.40;;;22.60;97.20;;;;;;1727683;28;20219;-73
2022/08/16 07:31:37;;;;;;;6.07;5.40;;;22.60;97.20;;;;;;1727199;28;20227;-73
2022/08/16 07:32:29;;;;;;;6.33;5.10;;;22.60;97.20;;;;;;1727486;28;20218;-73
2022/08/16 07:33:20;;;;;;;5.65;5.15;;;22.70;97.20;;;;;;1727429;28;20212;-72
2022/08/16 07:34:12;;;;;;;6.23;5.70;;;22.70;97.20;;;;;;1727644;28;20200;-73
2022/08/16 07:35:04;;;;;;;6.22;5.63;;;22.70;97.20;;;;;;1727592;28;20525;-73
2022/08/16 07:35:57;;;;;;;5.93;5.40;;;22.80;97.20;;;;;;1727625;28;20244;-73
2022/08/16 07:36:48;;;;;;;7.07;6.45;;;22.80;97.20;;;;;;1727478;28;20200;-73
2022/08/16 07:37:40;;;;;;;6.07;5.50;;;22.80;97.20;;;;;;1727562;28;20200;-73
2022/08/16 07:38:31;;;;;;;6.30;5.80;;;22.80;97.20;;;;;;1727574;28;20223;-73
2022/08/16 07:39:23;;;;;;;5.90;5.40;;;22.80;97.20;;;;;;1727260;28;20203;-73
2022/08/16 07:40:14;;;;;;;7.10;6.10;;;22.80;97.20;;;;;;1727490;28;20208;-73
2022/08/16 07:41:06;;;;;;;6.63;6.13;;;22.80;97.20;;;;;;1727456;28;20275;-73
2022/08/16 07:41:57;;;;;;;6.80;5.40;;;22.80;97.20;;;;;;1727365;28;20439;-73
2022/08/16 07:42:48;;;;;;;6.47;5.33;;;22.90;97.20;;;;;;1727563;28;20201;-73
2022/08/16 07:43:39;;;;;;;5.65;5.25;;;22.90;97.20;;;;;;1727410;28;20224;-73
2022/08/16 07:44:31;;;;;;;6.10;5.47;;;22.90;97.20;;;;;;1727602;28;20240;-73
2022/08/16 07:45:22;;;;;;;6.53;5.82;;;23.00;97.20;;;;;;1727217;28;20200;-73
2022/08/16 07:46:13;;;;;;;5.70;5.30;;;23.00;97.20;;;;;;1727482;28;20223;-72
2022/08/16 07:47:05;;;;;;;5.68;4.90;;;23.10;97.20;;;;;;1727409;28;20204;-73
2022/08/16 07:47:56;;;;;;;6.00;5.55;;;23.20;97.20;;;;;;1727488;28;20686;-73
2022/08/16 07:48:47;;;;;;;6.05;5.55;;;23.20;97.20;;;;;;1727532;28;20208;-73
2022/08/16 07:49:39;;;;;;;5.80;5.17;;;23.30;97.20;;;;;;1727387;28;20208;-73
2022/08/16 07:50:30;;;;;;;5.80;5.30;;;23.30;97.20;;;;;;1727435;28;20219;-72
2022/08/16 07:51:23;;;;;;;7.20;5.80;;;23.40;97.20;;;;;;1727167;28;20287;-73
2022/08/16 07:52:13;;;;;;;7.03;5.30;;;23.50;97.20;;;;;;1727491;28;20232;-73
2022/08/16 07:53:05;;;;;;;5.67;5.17;;;23.50;97.20;;;;;;1727381;28;20193;-73
2022/08/16 07:53:56;;;;;;;5.65;5.20;;;23.50;97.20;;;;;;1727051;28;20212;-73
2022/08/16 07:54:48;;;;;;;5.87;5.20;;;23.50;97.20;;;;;;1727409;28;20200;-73
2022/08/16 07:55:39;;;;;;;7.75;6.60;;;23.50;97.20;;;;;;1727335;28;20212;-73
2022/08/16 07:56:31;;;;;;;5.97;5.57;;;23.50;97.20;;;;;;1727493;28;20576;-73
2022/08/16 07:57:22;;;;;;;6.07;5.57;;;23.50;97.20;;;;;;1727400;28;20541;-73
2022/08/16 07:58:14;;;;;;;6.57;5.97;;;23.50;97.20;;;;;;1727503;28;20668;-73
2022/08/16 07:59:05;;;;;;;7.70;6.80;;;23.60;97.20;;;;;;1727390;28;20200;-73
2022/08/16 07:59:58;;;;;;;6.05;5.63;;;23.60;97.20;;;;;;1727156;28;20569;-73
2022/08/16 08:00:49;;;;;;;6.00;5.50;;;23.60;97.20;;;;;;1727130;28;20197;-72
2022/08/16 08:01:40;;;;;;;5.90;5.40;;;23.60;97.20;;;;;;1726801;28;20232;-72
2022/08/16 08:02:31;;;;;;;7.00;6.30;;;23.60;97.20;;;;;;1727376;28;20224;-73
2022/08/16 08:03:23;;;;;;;7.33;6.73;;;23.60;97.20;;;;;;1727289;28;20283;-73
2022/08/16 08:04:14;;;;;;;6.57;5.95;;;23.60;97.20;;;;;;1727383;28;20215;-73
2022/08/16 08:05:07;;;;;;;6.50;6.00;;;23.60;97.20;;;;;;1727324;28;20275;-73
2022/08/16 08:05:59;;;;;;;6.70;6.20;;;23.70;97.20;;;;;;1726585;28;20467;-73
2022/08/16 08:06:52;;;;;;;6.30;5.80;;;23.70;97.20;;;;;;1727329;28;20192;-72
2022/08/16 08:07:43;;;;;;;6.70;6.05;;;23.70;97.20;;;;;;1727432;28;20548;-73
2022/08/16 08:08:35;;;;;;;6.70;6.10;;;23.80;97.20;;;;;;1727365;28;20308;-73
2022/08/16 08:09:25;;;;;;;6.80;6.28;;;23.80;97.20;;;;;;1727445;28;20216;-73
2022/08/16 08:10:17;;;;;;;6.77;6.17;;;23.80;97.20;;;;;;1727068;28;20208;-73
2022/08/16 08:11:08;;;;;;;6.53;5.68;;;23.90;97.20;;;;;;1727331;28;20196;-73
2022/08/16 08:12:00;;;;;;;6.20;5.70;;;23.90;97.20;;;;;;1727038;28;20235;-73
2022/08/16 08:12:53;;;;;;;6.88;6.28;;;23.90;97.20;;;;;;1727301;28;20197;-73
2022/08/16 08:13:44;;;;;;;7.00;6.40;;;24.00;97.20;;;;;;1727141;28;20586;-73
2022/08/16 08:14:35;;;;;;;6.43;5.93;;;24.10;97.20;;;;;;1727288;28;20694;-73
2022/08/16 08:15:28;;;;;;;6.37;5.77;;;24.10;97.20;;;;;;1727458;28;20783;-73
2022/08/16 08:16:20;;;;;;;6.82;6.22;;;24.20;97.20;;;;;;1727253;28;20447;-73
2022/08/16 08:17:11;;;;;;;6.78;6.20;;;24.20;97.20;;;;;;1727279;28;20206;-73
2022/08/16 08:18:03;;;;;;;6.50;5.95;;;24.30;97.20;;;;;;1727326;28;20216;-73
2022/08/16 08:18:54;;;;;;;6.60;6.00;;;24.30;97.20;;;;;;1727317;28;20207;-73
2022/08/16 08:19:46;;;;;;;7.28;5.80;;;24.40;97.20;;;;;;1727280;28;20204;-73
2022/08/16 08:20:40;;;;;;;5.82;5.40;;;24.40;97.20;;;;;;1727023;28;20199;-73
2022/08/16 08:21:32;;;;;;;6.93;6.32;;;24.40;97.20;;;;;;1726966;28;20695;-73
2022/08/16 08:22:26;;;;;;;6.03;5.63;;;24.50;97.20;;;;;;1727337;28;20235;-73
2022/08/16 08:23:19;;;;;;;7.80;7.00;;;24.50;97.20;;;;;;1727203;28;20451;-73
2022/08/16 08:24:13;;;;;;;6.20;5.70;;;24.50;97.20;;;;;;1727371;28;20571;-73
2022/08/16 08:25:05;;;;;;;6.70;6.20;;;24.60;97.20;;;;;;1727383;28;20211;-73
2022/08/16 08:25:57;;;;;;;6.20;5.70;;;24.60;97.20;;;;;;1727296;28;20204;-73
2022/08/16 08:26:48;;;;;;;6.68;6.05;;;24.60;97.20;;;;;;1727277;28;20683;-73
2022/08/16 08:27:41;;;;;;;6.33;5.83;;;24.60;97.20;;;;;;1727264;28;20748;-73
2022/08/16 08:28:32;;;;;;;8.80;6.70;;;24.70;97.20;;;;;;1727298;28;20204;-73
2022/08/16 08:29:24;;;;;;;6.45;5.95;;;24.70;97.20;;;;;;1727356;28;20279;-73
2022/08/16 08:30:15;;;;;;;6.43;5.80;;;24.80;97.20;;;;;;1726996;28;20219;-73
2022/08/16 08:31:07;;;;;;;6.20;5.63;;;24.80;97.20;;;;;;1727260;28;20193;-73
2022/08/16 08:31:59;;;;;;;6.10;5.50;;;24.90;97.20;;;;;;1726875;28;20432;-73
2022/08/16 08:32:52;;;;;;;6.43;5.82;;;24.90;97.20;;;;;;1726975;28;20451;-73
2022/08/16 08:33:43;;;;;;;6.63;6.03;;;25.00;97.20;;;;;;1727246;28;20783;-73
2022/08/16 08:34:35;;;;;;;6.43;5.83;;;25.00;97.20;;;;;;1727323;28;20684;-73
2022/08/16 08:35:26;;;;;;;6.80;6.20;;;25.00;97.20;;;;;;1727308;28;20204;-73
2022/08/16 08:36:25;;;;;;;9.43;5.73;;;25.00;97.20;;;;;;1727272;28;20280;-73
2022/08/16 08:37:16;;;;;;;6.63;5.70;;;25.00;97.20;;;;;;1727269;28;20209;-73
2022/08/16 08:38:09;;;;;;;8.30;6.30;;;25.00;97.20;;;;;;1727297;28;20443;-73
2022/08/16 08:39:02;;;;;;;6.77;6.27;;;25.00;97.20;;;;;;1727278;28;20203;-73
2022/08/16 08:39:54;;;;;;;6.18;5.65;;;25.00;97.20;;;;;;1727249;28;20963;-73
2022/08/16 08:40:45;;;;;;;7.28;6.57;;;24.90;97.20;;;;;;1727053;28;20200;-73
2022/08/16 08:41:36;;;;;;;6.13;5.63;;;24.90;97.20;;;;;;1726915;28;20259;-73
2022/08/16 08:42:27;;;;;;;7.72;6.50;;;24.80;97.20;;;;;;1727230;28;20699;-73
2022/08/16 08:43:19;;;;;;;6.47;5.97;;;24.80;97.20;;;;;;1727099;28;20639;-73
2022/08/16 08:44:10;;;;;;;6.10;5.53;;;24.80;97.20;;;;;;1727216;28;20265;-73
2022/08/16 08:45:03;;;;;;;6.67;5.97;;;24.70;97.20;;;;;;1727185;28;20262;-73
2022/08/16 08:45:54;;;;;;;7.03;6.40;;;24.70;97.20;;;;;;1727226;28;20443;-73
2022/08/16 08:46:46;;;;;;;7.27;6.67;;;24.60;97.20;;;;;;1727097;28;20435;-73
2022/08/16 08:47:37;;;;;;;8.02;6.75;;;24.60;97.20;;;;;;1727161;28;20597;-73
2022/08/16 08:48:31;;;;;;;7.85;6.22;;;24.50;97.20;;;;;;1727268;28;20200;-73
2022/08/16 08:49:21;;;;;;;6.60;6.10;;;24.50;97.20;;;;;;1727242;28;20223;-73
2022/08/16 08:50:15;;;;;;;6.47;5.97;;;24.40;97.20;;;;;;1727051;28;20474;-73
2022/08/16 08:51:08;;;;;;;7.10;6.60;;;24.40;97.20;;;;;;1727013;28;20201;-73
2022/08/16 08:51:59;;;;;;;7.30;6.40;;;24.40;97.20;;;;;;1726901;28;20440;-73
2022/08/16 08:52:50;;;;;;;8.02;6.68;;;24.30;97.20;;;;;;1726943;28;20451;-73
2022/08/16 08:53:43;;;;;;;6.77;5.83;;;24.30;97.20;;;;;;1727153;28;20308;-73
2022/08/16 08:54:35;;;;;;;6.40;5.40;;;24.30;97.20;;;;;;1727237;28;20462;-73
2022/08/16 08:55:27;;;;;;;6.90;6.20;;;24.30;97.20;;;;;;1727185;28;20224;-73
2022/08/16 08:56:18;;;;;;;6.70;5.88;;;24.30;97.20;;;;;;1727118;28;20456;-73
2022/08/16 08:57:11;;;;;;;6.70;6.10;;;24.30;97.20;;;;;;1727156;28;20283;-73
2022/08/16 08:58:02;;;;;;;6.43;5.82;;;24.40;97.20;;;;;;1727158;28;20810;-73
2022/08/16 08:58:54;;;;;;;7.67;6.97;;;24.40;97.20;;;;;;1727145;28;20206;-73
2022/08/16 08:59:45;;;;;;;6.88;6.22;;;24.50;97.20;;;;;;1727202;28;20794;-73
2022/08/16 09:00:38;;;;;;;6.47;5.83;;;24.50;97.20;;;;;;1726912;28;20628;-73
2022/08/16 09:01:31;;;;;;;6.25;5.65;;;24.50;97.20;;;;;;1726794;28;20204;-73
2022/08/16 09:02:22;;;;;;;9.23;6.85;;;24.50;97.20;;;;;;1727184;28;20208;-73
2022/08/16 09:03:13;;;;;;;6.40;5.90;;;24.60;97.20;;;;;;1727106;28;20205;-73
2022/08/16 09:04:06;;;;;;;7.10;6.33;;;24.60;97.20;;;;;;1727191;28;20276;-73
2022/08/16 09:04:57;;;;;;;6.72;6.13;;;24.60;97.20;;;;;;1727086;28;20204;-75
2022/08/16 09:05:49;;;;;;;6.37;5.87;;;24.70;97.20;;;;;;1727239;28;20287;-74
2022/08/16 09:06:42;;;;;;;6.80;6.20;;;24.70;97.20;;;;;;1727168;28;20291;-74
2022/08/16 09:07:33;;;;;;;6.63;5.97;;;24.70;97.20;;;;;;1727172;28;20501;-75
2022/08/16 09:08:25;;;;;;;5.80;5.40;;;24.80;97.20;;;;;;1727102;28;20451;-75
2022/08/16 09:09:18;;;;;;;6.75;6.15;;;24.80;97.20;;;;;;1727127;28;20917;-74
2022/08/16 09:10:10;;;;;;;6.23;5.83;;;24.80;97.20;;;;;;1727135;28;20216;-74
2022/08/16 09:11:02;;;;;;;6.50;5.90;;;24.90;97.20;;;;;;1726787;28;20440;-74
2022/08/16 09:11:54;;;;;;;5.65;5.13;;;24.90;97.20;;;;;;1726873;28;20458;-74
2022/08/16 09:12:46;;;;;;;6.00;5.13;;;25.00;97.20;;;;;;1727080;28;20203;-75
2022/08/16 09:13:37;;;;;;;6.82;5.90;;;25.10;97.20;;;;;;1726752;28;20487;-75
2022/08/16 09:14:29;;;;;;;6.83;5.83;;;25.10;97.20;;;;;;1727230;28;20225;-74
2022/08/16 09:15:20;;;;;;;6.20;5.55;;;25.10;97.20;;;;;;1727089;28;20711;-75
2022/08/16 09:16:12;;;;;;;6.10;5.60;;;25.20;97.20;;;;;;1727183;28;20606;-75
2022/08/16 09:17:03;;;;;;;6.17;5.60;;;25.20;97.20;;;;;;1727318;28;20200;-75
2022/08/16 09:17:55;;;;;;;6.20;5.80;;;25.20;97.20;;;;;;1728487;28;20489;-74
2022/08/16 09:18:46;;;;;;;6.50;6.00;;;25.10;97.20;;;;;;1728450;28;20814;-73
2022/08/16 09:19:39;;;;;;;6.10;5.57;;;25.10;97.20;;;;;;1728357;28;20471;-73
2022/08/16 09:20:30;;;;;;;6.43;5.88;;;25.10;97.20;;;;;;1727931;28;20462;-73
2022/08/16 09:21:22;;;;;;;6.53;5.93;;;25.10;97.20;;;;;;1728182;28;20200;-73
2022/08/16 09:22:13;;;;;;;6.20;5.67;;;25.10;97.20;;;;;;1728365;28;20224;-73
2022/08/16 09:23:04;;;;;;;6.40;5.60;;;25.10;97.20;;;;;;1728301;28;20543;-73
2022/08/16 09:23:55;;;;;;;5.65;5.15;;;25.10;97.20;;;;;;1728218;28;20220;-73
2022/08/16 09:24:49;;;;;;;6.00;5.50;;;25.10;97.20;;;;;;1728471;28;20235;-75
2022/08/16 09:25:40;;;;;;;6.50;5.90;;;25.20;97.20;;;;;;1728282;28;20217;-75
2022/08/16 09:26:32;;;;;;;6.40;5.53;;;25.20;97.20;;;;;;1728418;28;20296;-75
2022/08/16 09:27:24;;;;;;;6.00;5.40;;;25.20;97.20;;;;;;1728323;28;20710;-75
2022/08/16 09:28:16;;;;;;;5.80;5.30;;;25.30;97.20;;;;;;1728340;28;20197;-75
2022/08/16 09:29:07;;;;;;;5.40;4.97;;;25.30;97.20;;;;;;1728331;28;20467;-75
2022/08/16 09:29:59;;;;;;;7.37;5.80;;;25.30;97.20;;;;;;1728281;28;20330;-75